Time;durP1;ratioP1;P1;durP2;ratioP2;P2;SDS_P1;SDS_P2;PMS_P1;PMS_P2;Temp;Humidity;BMP_temperature;BMP_pressure;BME280_temperature;BME280_humidity;BME280_pressure;Samples;Min_cycle;Max_cycle;Signal;HPM_P1;HPM_P2
2022/03/29 00:01:56;;;;;;;;;38.75;30.00;;;;;16.04;37.78;100544.69;5055114;28;45474;-74
2022/03/29 00:04:22;;;;;;;;;22.75;17.75;;;;;16.03;38.20;100542.09;5056332;28;45309;-76
2022/03/29 00:06:48;;;;;;;;;30.75;27.50;;;;;15.96;38.12;100530.81;5055012;28;45698;-74
2022/03/29 00:09:14;;;;;;;;;30.75;26.75;;;;;15.97;38.20;100537.88;5053161;28;45581;-75
2022/03/29 00:11:39;;;;;;;;;31.25;30.00;;;;;15.93;38.34;100526.50;5054438;28;45535;-75
2022/03/29 00:14:06;;;;;;;;;33.50;25.75;;;;;15.91;38.40;100532.81;5056122;28;45485;-74
2022/03/29 00:16:32;;;;;;;;;34.75;27.00;;;;;15.81;38.66;100519.03;5055263;28;45552;-75
2022/03/29 00:18:57;;;;;;;;;40.50;28.50;;;;;15.81;38.66;100514.56;5054465;28;45492;-75
2022/03/29 00:21:23;;;;;;;;;19.50;19.50;;;;;15.76;38.94;100513.84;5054550;28;45346;-75
2022/03/29 00:23:48;;;;;;;;;35.75;24.25;;;;;15.74;39.17;100509.50;5054421;28;45425;-74
2022/03/29 00:26:14;;;;;;;;;40.50;31.00;;;;;15.69;39.16;100503.53;5056907;28;45301;-74
2022/03/29 00:28:40;;;;;;;;;38.75;28.50;;;;;15.65;38.80;100502.78;5056529;28;46420;-75
2022/03/29 00:31:05;;;;;;;;;35.50;33.50;;;;;15.60;39.20;100494.97;5056125;28;45402;-74
2022/03/29 00:33:30;;;;;;;;;29.00;29.00;;;;;15.58;38.93;100496.00;5054883;28;45386;-76
2022/03/29 00:35:56;;;;;;;;;30.75;24.75;;;;;15.55;38.88;100491.66;5054757;28;45648;-75
2022/03/29 00:38:21;;;;;;;;;29.00;23.50;;;;;15.53;39.04;100485.53;5054208;28;45460;-75
2022/03/29 00:40:47;;;;;;;;;33.50;29.75;;;;;15.40;39.23;100474.50;5052486;28;45561;-74
2022/03/29 00:43:12;;;;;;;;;36.25;30.00;;;;;15.45;39.18;100477.84;5053523;28;46032;-75
2022/03/29 00:45:38;;;;;;;;;37.25;28.50;;;;;15.46;39.51;100482.25;5054876;28;45427;-74
2022/03/29 00:48:06;;;;;;;;;35.50;32.50;;;;;15.46;39.35;100476.91;5055063;28;45517;-75
2022/03/29 00:50:32;;;;;;;;;26.50;22.00;;;;;15.44;39.63;100470.81;5054848;28;45476;-75
2022/03/29 00:52:57;;;;;;;;;34.75;29.25;;;;;15.41;39.69;100468.25;5049574;28;45988;-76
2022/03/29 00:55:23;;;;;;;;;39.50;29.75;;;;;15.37;39.90;100458.66;5035328;28;45386;-75
2022/03/29 00:57:50;;;;;;;;;34.75;30.75;;;;;15.35;39.84;100463.19;5035244;28;45351;-74
2022/03/29 01:00:16;;;;;;;;;30.75;26.00;;;;;15.33;39.50;100448.22;5050066;28;45478;-75
2022/03/29 01:02:43;;;;;;;;;37.50;33.25;;;;;15.27;39.75;100452.88;5052281;28;45342;-75
2022/03/29 01:05:08;;;;;;;;;51.00;38.50;;;;;15.26;39.67;100447.59;5052048;28;45712;-74
2022/03/29 01:07:34;;;;;;;;;44.50;39.25;;;;;15.23;40.10;100439.75;5054654;28;46857;-75
2022/03/29 01:10:01;;;;;;;;;39.50;33.50;;;;;15.21;39.49;100446.91;5052520;28;45450;-76
2022/03/29 01:12:29;;;;;;;;;33.75;28.50;;;;;15.23;39.80;100435.28;5053758;28;45335;-77
2022/03/29 01:14:56;;;;;;;;;37.50;31.00;;;;;15.22;39.87;100436.19;5054399;28;45497;-75
2022/03/29 01:17:41;;;;;;;;;36.00;33.00;;;;;15.19;39.84;100432.81;5055181;28;46640;-75
2022/03/29 01:20:28;;;;;;;;;42.25;31.75;;;;;15.17;40.26;100426.66;5053123;28;45656;-74
2022/03/29 01:22:55;;;;;;;;;38.25;33.25;;;;;15.16;39.85;100423.16;5034980;28;45545;-74
2022/03/29 01:25:24;;;;;;;;;36.25;30.00;;;;;15.14;39.69;100421.47;5034305;28;45375;-76
2022/03/29 01:27:51;;;;;;;;;42.75;37.75;;;;;15.13;39.79;100420.59;5054370;28;46289;-75
2022/03/29 01:30:17;;;;;;;;;34.25;25.50;;;;;15.14;40.07;100418.81;5057031;28;45425;-75
2022/03/29 01:32:48;;;;;;;;;39.25;32.50;;;;;15.12;39.41;100410.88;5053833;28;45429;-75
2022/03/29 01:35:16;;;;;;;;;36.25;32.25;;;;;15.09;39.89;100409.25;5054058;28;45309;-75
2022/03/29 01:37:41;;;;;;;;;29.00;26.00;;;;;15.10;39.50;100416.28;5052645;28;45530;-74
2022/03/29 01:40:08;;;;;;;;;27.25;23.50;;;;;15.08;39.86;100410.16;5054300;28;45389;-75
2022/03/29 01:42:34;;;;;;;;;25.50;23.75;;;;;15.07;39.39;100408.41;5055140;28;45802;-76
2022/03/29 01:45:00;;;;;;;;;34.25;24.25;;;;;15.07;39.04;100403.09;5055186;28;45492;-76
2022/03/29 01:47:26;;;;;;;;;30.00;24.75;;;;;15.08;39.06;100396.84;5052168;28;45514;-74
2022/03/29 01:49:51;;;;;;;;;34.75;28.00;;;;;15.06;38.84;100400.50;5054517;28;45564;-77
2022/03/29 01:52:19;;;;;;;;;36.75;26.00;;;;;15.01;38.25;100390.03;5053359;28;45682;-78
2022/03/29 01:54:45;;;;;;;;;32.50;24.25;;;;;14.93;38.24;100397.47;5053152;28;45519;-77
2022/03/29 01:57:11;;;;;;;;;34.50;24.75;;;;;14.84;38.37;100385.41;5057623;28;46549;-78
2022/03/29 02:02:21;;;;;;;;;28.50;25.25;;;;;14.82;38.88;100378.41;5054312;28;45307;-77
2022/03/29 02:04:46;;;;;;;;;28.75;23.25;;;;;14.81;38.66;100379.38;5053171;28;45362;-79
2022/03/29 02:07:12;;;;;;;;;31.75;29.25;;;;;14.78;38.62;100369.69;5053583;28;45426;-78
2022/03/29 02:09:38;;;;;;;;;28.50;25.25;;;;;14.76;38.67;100371.56;5057387;28;45394;-78
2022/03/29 02:12:05;;;;;;;;;16.00;13.25;;;;;14.74;38.52;100368.09;5053593;28;45433;-77
2022/03/29 02:14:30;;;;;;;;;26.00;21.00;;;;;14.70;38.43;100363.84;5053865;28;45474;-79
2022/03/29 02:16:55;;;;;;;;;24.00;20.50;;;;;14.68;38.62;100352.38;5052514;28;46565;-77
2022/03/29 02:19:21;;;;;;;;;28.25;21.00;;;;;14.67;38.47;100345.34;5052696;28;45633;-78
2022/03/29 02:21:46;;;;;;;;;32.75;22.00;;;;;14.68;38.29;100342.63;5052230;28;45409;-77
2022/03/29 02:24:11;;;;;;;;;23.50;16.75;;;;;14.71;37.90;100339.84;5054094;28;45480;-77
2022/03/29 02:26:37;;;;;;;;;29.00;23.75;;;;;14.71;37.38;100342.50;5054951;28;46303;-77
2022/03/29 02:29:02;;;;;;;;;26.75;18.00;;;;;14.63;37.53;100327.78;5058627;28;45367;-77
2022/03/29 02:31:28;;;;;;;;;25.75;24.25;;;;;14.68;37.29;100331.97;5059677;28;45325;-77
2022/03/29 02:33:53;;;;;;;;;24.50;16.25;;;;;14.69;37.39;100322.19;5054196;28;45667;-78
2022/03/29 02:36:18;;;;;;;;;24.25;20.25;;;;;14.69;37.06;100324.88;5057230;28;45945;-77
2022/03/29 02:38:44;;;;;;;;;26.00;21.75;;;;;14.74;37.54;100315.78;5052015;28;45427;-78
2022/03/29 02:41:09;;;;;;;;;29.50;24.00;;;;;14.75;36.54;100321.94;5053772;28;45354;-78
2022/03/29 02:43:34;;;;;;;;;30.00;26.50;;;;;14.70;36.52;100307.97;5054891;28;45376;-77
2022/03/29 02:46:00;;;;;;;;;28.25;22.50;;;;;14.71;36.05;100305.25;5054494;28;46033;-78
2022/03/29 02:48:26;;;;;;;;;31.50;23.25;;;;;14.70;36.31;100294.69;5054748;28;45372;-77
2022/03/29 02:50:51;;;;;;;;;23.75;18.50;;;;;14.65;36.68;100291.31;5032842;28;45566;-78
2022/03/29 02:53:16;;;;;;;;;30.50;26.75;;;;;14.71;36.46;100304.38;5034637;28;45320;-78
2022/03/29 02:55:42;;;;;;;;;23.75;20.25;;;;;14.71;35.95;100304.38;5039554;28;47134;-78
2022/03/29 02:58:08;;;;;;;;;25.50;20.00;;;;;14.74;36.11;100306.91;5057216;28;45498;-77
2022/03/29 03:00:33;;;;;;;;;20.00;20.00;;;;;14.75;35.41;100300.66;5063003;27;45426;-77
2022/03/29 03:02:59;;;;;;;;;25.25;22.00;;;;;14.75;35.27;100305.97;5059526;28;45438;-78
2022/03/29 03:05:25;;;;;;;;;22.50;20.50;;;;;14.74;35.08;100297.16;5057055;28;45518;-78
2022/03/29 03:07:50;;;;;;;;;20.25;20.00;;;;;14.72;34.82;100290.16;5056689;28;45378;-77
2022/03/29 03:10:16;;;;;;;;;21.75;19.75;;;;;14.72;34.64;100299.00;5058359;28;45526;-78
2022/03/29 03:12:46;;;;;;;;;25.75;20.75;;;;;14.71;34.46;100294.63;5058842;28;45611;-78
2022/03/29 03:15:15;;;;;;;;;23.25;16.00;;;;;14.68;34.27;100278.78;5057559;28;45522;-77
2022/03/29 03:17:40;;;;;;;;;20.50;15.75;;;;;14.70;34.53;100276.91;5058522;28;45435;-78
2022/03/29 03:20:06;;;;;;;;;16.50;16.00;;;;;14.67;34.25;100265.56;5056562;28;45706;-77
2022/03/29 03:22:35;;;;;;;;;23.00;18.75;;;;;14.74;34.77;100273.22;5059046;28;45543;-78
2022/03/29 03:25:00;;;;;;;;;22.75;20.50;;;;;14.71;36.41;100269.78;5051131;28;45358;-78
2022/03/29 03:27:25;;;;;;;;;33.50;23.25;;;;;14.70;37.57;100265.44;5056671;28;45449;-78
2022/03/29 03:29:51;;;;;;;;;27.00;24.50;;;;;14.69;37.99;100269.84;5058683;28;53504;-77
2022/03/29 03:32:16;;;;;;;;;28.75;24.00;;;;;14.69;38.97;100269.84;5062615;28;45471;-78
2022/03/29 03:34:41;;;;;;;;;24.25;23.00;;;;;14.61;38.98;100266.66;5057534;28;46195;-79
2022/03/29 03:37:08;;;;;;;;;32.75;25.25;;;;;14.58;39.38;100272.94;5056209;28;45704;-79
2022/03/29 03:39:36;;;;;;;;;32.50;27.00;;;;;14.54;39.09;100263.34;5056382;28;45528;-78
2022/03/29 03:42:03;;;;;;;;;29.50;22.75;;;;;14.52;38.89;100267.88;5056426;28;45413;-79
2022/03/29 03:44:29;;;;;;;;;25.75;22.00;;;;;14.51;38.84;100255.50;5053021;28;45590;-77
2022/03/29 03:46:54;;;;;;;;;39.00;26.75;;;;;14.48;39.18;100249.44;5056285;28;45567;-77
2022/03/29 03:49:20;;;;;;;;;34.00;26.50;;;;;14.48;39.24;100249.44;5056275;28;45495;-77
2022/03/29 03:51:46;;;;;;;;;23.25;21.00;;;;;14.48;38.98;100249.44;5055341;28;45671;-77
2022/03/29 03:54:11;;;;;;;;;28.50;28.25;;;;;14.45;38.59;100244.25;5060002;28;46389;-78
2022/03/29 03:56:38;;;;;;;;;25.25;24.00;;;;;14.43;38.61;100243.47;5055321;28;45454;-78
2022/03/29 03:59:03;;;;;;;;;24.25;22.50;;;;;14.42;38.42;100244.38;5056150;28;45370;-78
2022/03/29 04:01:29;;;;;;;;;25.25;20.75;;;;;14.35;38.35;100226.03;5063557;28;45395;-78
2022/03/29 04:03:55;;;;;;;;;33.50;24.00;;;;;14.34;38.46;100234.94;5048430;28;45489;-77
2022/03/29 04:06:20;;;;;;;;;32.50;28.00;;;;;14.33;38.05;100233.22;5040168;28;45417;-77
2022/03/29 04:08:45;;;;;;;;;24.25;20.50;;;;;14.31;38.25;100228.88;5054099;28;45481;-77
2022/03/29 04:11:11;;;;;;;;;26.75;22.25;;;;;14.31;38.29;100228.88;5055597;28;45357;-78
2022/03/29 04:13:36;;;;;;;;;19.25;13.00;;;;;14.30;38.12;100228.03;5056510;28;45394;-77
2022/03/29 04:16:04;;;;;;;;;34.75;21.00;;;;;14.30;38.16;100225.38;5056911;28;45347;-78
2022/03/29 04:18:29;;;;;;;;;24.75;19.00;;;;;14.27;38.11;100230.81;5055616;28;45515;-78
2022/03/29 04:20:55;;;;;;;;;19.75;18.25;;;;;14.27;38.28;100220.19;5057749;28;45587;-77
2022/03/29 04:23:20;;;;;;;;;22.50;18.25;;;;;14.24;38.27;100228.25;5055772;28;46164;-77
2022/03/29 04:25:46;;;;;;;;;27.75;18.00;;;;;14.21;38.58;100229.25;5057356;28;45343;-77
2022/03/29 04:28:12;;;;;;;;;25.25;21.00;;;;;14.21;38.63;100228.38;5059947;28;45487;-79
2022/03/29 04:30:38;;;;;;;;;14.25;10.00;;;;;14.20;38.44;100234.63;5053050;28;45445;-79
2022/03/29 04:33:03;;;;;;;;;20.25;19.25;;;;;14.19;38.65;100232.91;5058723;28;45451;-78
2022/03/29 04:35:28;;;;;;;;;23.50;19.75;;;;;14.14;38.76;100229.56;5054006;28;45617;-79
2022/03/29 04:37:54;;;;;;;;;23.50;19.75;;;;;14.09;38.72;100221.78;5053355;28;45428;-77
2022/03/29 04:40:20;;;;;;;;;24.00;17.50;;;;;14.07;39.16;100217.44;5052799;28;45493;-78
2022/03/29 04:42:48;;;;;;;;;29.50;21.75;;;;;13.98;38.96;100208.94;5055592;28;45473;-77
2022/03/29 04:45:14;;;;;;;;;25.50;20.75;;;;;14.00;39.24;100217.69;5055758;28;45341;-78
2022/03/29 04:47:43;;;;;;;;;13.75;13.25;;;;;13.98;39.53;100216.91;5053485;28;45396;-79
2022/03/29 04:50:10;;;;;;;;;24.25;18.75;;;;;14.02;39.26;100213.16;5055217;28;45582;-77
2022/03/29 04:52:36;;;;;;;;;27.75;21.75;;;;;13.98;39.60;100206.28;5054640;28;46323;-77
2022/03/29 04:55:02;;;;;;;;;20.50;18.00;;;;;14.02;39.45;100209.66;5053726;28;45457;-78
2022/03/29 04:57:27;;;;;;;;;14.00;9.75;;;;;13.96;39.41;100197.47;5052220;28;45450;-78
2022/03/29 04:59:53;;;;;;;;;29.25;21.00;;;;;13.99;39.26;100207.97;5058555;28;45536;-77
2022/03/29 05:02:19;;;;;;;;;21.75;20.75;;;;;13.97;39.59;100209.84;5061721;28;45544;-78
2022/03/29 05:04:45;;;;;;;;;19.25;17.00;;;;;13.95;39.90;100217.03;5055599;28;45502;-78
2022/03/29 05:07:10;;;;;;;;;18.50;16.75;;;;;13.97;39.80;100228.44;5054000;28;45318;-78
2022/03/29 05:09:36;;;;;;;;;21.75;16.25;;;;;13.98;40.15;100227.53;5054478;28;45301;-78
2022/03/29 05:12:01;;;;;;;;;24.75;18.00;;;;;13.99;40.17;100225.72;5055094;28;45360;-78
2022/03/29 05:14:26;;;;;;;;;18.25;17.00;;;;;14.00;40.24;100217.69;5055256;28;45370;-78
2022/03/29 05:16:52;;;;;;;;;25.25;19.75;;;;;13.99;39.68;100215.94;5052853;28;45331;-79
2022/03/29 05:19:17;;;;;;;;;19.50;19.50;;;;;13.96;39.79;100216.06;5054001;28;45580;-79
2022/03/29 05:21:43;;;;;;;;;26.50;22.25;;;;;14.01;40.12;100221.22;5053906;28;58269;-79
2022/03/29 05:24:09;;;;;;;;;15.50;13.00;;;;;13.99;39.72;100213.28;5055388;28;45441;-78
2022/03/29 05:26:35;;;;;;;;;20.75;15.25;;;;;13.97;39.98;100201.88;5054530;28;45523;-78
2022/03/29 05:29:02;;;;;;;;;19.75;17.00;;;;;13.95;39.88;100205.50;5053595;28;45423;-79
2022/03/29 05:31:28;;;;;;;;;24.00;18.75;;;;;13.96;39.93;100210.75;5059549;28;47201;-78
2022/03/29 05:33:53;;;;;;;;;20.25;17.75;;;;;13.97;39.92;100212.50;5058154;28;45441;-79
2022/03/29 05:36:18;;;;;;;;;22.25;18.00;;;;;13.94;40.48;100199.34;5054991;28;45369;-78
2022/03/29 05:38:49;;;;;;;;;20.75;16.50;;;;;13.95;40.12;100198.44;5054526;28;45414;-78
2022/03/29 05:41:15;;;;;;;;;24.25;20.00;;;;;13.93;40.17;100194.94;5054831;28;46286;-78
2022/03/29 05:43:41;;;;;;;;;20.25;18.50;;;;;13.92;40.10;100198.50;5057022;28;45446;-80
2022/03/29 05:48:55;;;;;;;;;12.25;8.25;;;;;13.99;40.31;100200.00;5053404;28;45745;-78
2022/03/29 05:51:23;;;;;;;;;19.00;17.00;;;;;13.98;40.64;100190.34;5054206;28;45396;-79
2022/03/29 05:53:49;;;;;;;;;27.75;20.75;;;;;13.95;40.56;100192.22;5054745;28;45399;-78
2022/03/29 05:56:14;;;;;;;;;23.50;20.00;;;;;13.95;40.89;100187.81;5053956;28;45588;-78
2022/03/29 05:58:40;;;;;;;;;7.00;4.00;;;;;13.99;39.95;100204.47;5047045;28;45454;-78
2022/03/29 06:01:05;;;;;;;;;23.75;20.25;;;;;14.03;40.16;100206.94;5042852;28;46030;-78
2022/03/29 06:03:31;;;;;;;;;25.50;21.00;;;;;14.07;40.62;100201.50;5056850;28;47597;-78
2022/03/29 06:05:56;;;;;;;;;20.50;20.50;;;;;14.09;40.32;100199.63;5060253;28;45467;-77
2022/03/29 06:08:21;;;;;;;;;26.50;21.00;;;;;14.10;40.19;100201.38;5054484;28;45399;-79
2022/03/29 06:10:46;;;;;;;;;21.25;18.00;;;;;14.13;40.16;100212.75;5054228;28;46098;-77
2022/03/29 06:13:14;;;;;;;;;27.50;22.50;;;;;14.08;39.54;100208.56;5054089;28;45608;-79
2022/03/29 06:15:39;;;;;;;;;19.75;16.75;;;;;14.09;39.09;100215.59;5053888;28;45311;-78
2022/03/29 06:18:05;;;;;;;;;23.00;18.75;;;;;14.04;38.55;100211.34;5052812;28;45368;-77
2022/03/29 06:20:31;;;;;;;;;22.25;20.25;;;;;14.09;38.70;100216.47;5053949;28;45481;-77
2022/03/29 06:22:56;;;;;;;;;20.75;16.75;;;;;14.09;38.94;100215.59;5053489;28;45394;-76
2022/03/29 06:25:21;;;;;;;;;20.75;19.75;;;;;14.10;38.56;100219.97;5069076;28;45331;-79
2022/03/29 06:27:47;;;;;;;;;28.00;21.00;;;;;14.07;38.46;100223.63;5052451;28;45624;-77
2022/03/29 06:30:13;;;;;;;;;20.50;19.00;;;;;14.07;38.97;100228.94;5060198;28;45359;-79
2022/03/29 06:32:49;;;;;;;;;25.50;20.00;;;;;14.05;38.35;100225.47;5066595;28;45417;-78
2022/03/29 06:35:14;;;;;;;;;21.75;20.00;;;;;14.03;38.27;100228.19;5055650;28;45532;-79
2022/03/29 06:37:40;;;;;;;;;21.50;21.50;;;;;13.98;38.44;100224.88;5050224;28;45731;-78
2022/03/29 06:40:06;;;;;;;;;15.50;13.75;;;;;14.01;38.76;100230.06;5058021;28;45447;-79
2022/03/29 06:42:31;;;;;;;;;23.25;18.00;;;;;14.01;38.55;100230.06;5057271;28;45758;-77
2022/03/29 06:44:57;;;;;;;;;23.00;20.00;;;;;14.06;38.30;100223.69;5057711;28;45445;-78
2022/03/29 06:47:22;;;;;;;;;20.50;18.25;;;;;14.01;38.26;100216.78;5056391;27;45622;-80
2022/03/29 06:49:47;;;;;;;;;20.75;15.00;;;;;14.09;38.03;100218.25;5057259;28;45412;-79
2022/03/29 06:52:13;;;;;;;;;23.75;22.00;;;;;14.06;38.52;100215.72;5054843;28;45506;-78
2022/03/29 06:54:38;;;;;;;;;20.25;18.25;;;;;14.09;38.36;100212.94;5053561;28;45496;-79
2022/03/29 06:57:05;;;;;;;;;26.25;20.25;;;;;14.03;38.57;100201.63;5048019;28;45609;-76
2022/03/29 06:59:31;;;;;;;;;25.00;16.75;;;;;14.06;38.09;100207.72;5057070;28;45375;-79
2022/03/29 07:01:56;;;;;;;;;2.00;2.00;;;;;14.14;38.35;100216.28;5053624;28;45446;-80
2022/03/29 07:04:21;;;;;;;;;22.00;16.00;;;;;14.19;38.88;100208.97;5055571;28;45429;-79
2022/03/29 07:06:47;;;;;;;;;20.25;19.00;;;;;14.31;38.94;100211.13;5057397;28;45334;-78
2022/03/29 07:11:57;;;;;;;;;17.75;12.00;;;;;14.46;39.38;100206.13;5058138;28;45382;-79
2022/03/29 07:14:22;;;;;;;;;18.00;18.00;;;;;14.54;38.96;100207.50;5052270;28;45411;-80
2022/03/29 07:16:47;;;;;;;;;27.25;22.50;;;;;14.60;39.94;100206.38;5056712;28;45576;-80
2022/03/29 07:19:13;;;;;;;;;22.00;19.50;;;;;14.64;39.15;100204.50;5039844;28;45405;-79
2022/03/29 07:21:39;;;;;;;;;27.50;21.75;;;;;14.66;39.13;100206.16;5036277;28;45513;-76
2022/03/29 07:24:06;;;;;;;;;12.00;12.00;;;;;14.69;39.20;100197.19;5046039;28;45592;-78
2022/03/29 07:26:31;;;;;;;;;24.00;20.00;;;;;14.73;39.31;100204.97;5045427;28;45744;-77
2022/03/29 07:28:57;;;;;;;;;25.25;22.50;;;;;14.73;39.36;100201.47;5046351;28;46222;-76
2022/03/29 07:31:23;;;;;;;;;27.75;21.50;;;;;14.78;39.07;100204.75;5053397;28;45641;-76
2022/03/29 07:33:49;;;;;;;;;21.50;17.75;;;;;14.86;39.63;100201.78;5056993;28;45329;-74
2022/03/29 07:36:15;;;;;;;;;26.75;23.75;;;;;14.86;39.00;100191.97;5054448;28;45835;-75
2022/03/29 07:38:40;;;;;;;;;28.50;19.25;;;;;14.86;39.06;100197.31;5055117;28;45425;-74
2022/03/29 07:41:07;;;;;;;;;26.50;26.50;;;;;14.88;38.89;100191.94;5043622;28;45457;-74
2022/03/29 07:43:33;;;;;;;;;24.00;22.50;;;;;14.90;38.87;100198.91;5036547;28;45383;-76
2022/03/29 07:45:58;;;;;;;;;32.00;24.50;;;;;14.87;39.01;100187.53;5049038;28;45569;-77
2022/03/29 07:48:25;;;;;;;;;31.50;24.00;;;;;14.87;39.28;100184.88;5037786;28;46086;-76
2022/03/29 07:50:50;;;;;;;;;25.25;18.50;;;;;14.91;39.41;100184.69;5044567;28;45487;-76
2022/03/29 07:53:16;;;;;;;;;26.50;25.00;;;;;14.98;39.31;100185.25;5041852;28;45600;-76
2022/03/29 07:55:41;;;;;;;;;29.50;24.50;;;;;15.06;39.40;100184.91;5051970;28;45630;-77
2022/03/29 07:58:07;;;;;;;;;30.25;26.00;;;;;15.10;38.88;100176.72;5051286;28;46276;-76
2022/03/29 08:00:33;;;;;;;;;29.50;23.25;;;;;15.15;38.24;100176.50;5050833;28;45563;-77
2022/03/29 08:03:06;;;;;;;;;27.00;24.50;;;;;15.21;37.51;100180.72;5050133;28;45542;-76
2022/03/29 08:05:33;;;;;;;;;30.50;22.50;;;;;15.18;37.70;100176.38;5047837;28;45449;-76
2022/03/29 08:07:59;;;;;;;;;26.00;22.00;;;;;15.24;38.40;100172.56;5041165;28;45403;-77
2022/03/29 08:10:27;;;;;;;;;23.00;23.00;;;;;15.30;36.94;100171.44;5038141;28;45510;-77
2022/03/29 08:12:57;;;;;;;;;31.00;24.50;;;;;15.39;37.20;100158.56;5044279;28;45496;-76
2022/03/29 08:15:24;;;;;;;;;27.00;21.00;;;;;15.40;36.93;100156.78;5039751;28;45473;-75
2022/03/29 08:17:51;;;;;;;;;31.25;21.75;;;;;15.56;36.67;100154.25;5040323;28;45414;-75
2022/03/29 08:20:16;;;;;;;;;33.75;29.00;;;;;15.77;36.30;100158.56;5039311;28;45577;-77
2022/03/29 08:22:44;;;;;;;;;25.50;23.50;;;;;16.04;36.12;100144.84;5037408;28;45563;-76
2022/03/29 08:25:12;;;;;;;;;29.25;23.25;;;;;16.36;35.96;100142.38;5030635;28;45692;-76
2022/03/29 08:27:37;;;;;;;;;30.00;22.25;;;;;16.80;35.24;100144.53;5050646;28;45568;-76
2022/03/29 08:30:03;;;;;;;;;33.25;22.25;;;;;17.34;34.62;100136.34;5051081;28;45549;-76
2022/03/29 08:32:28;;;;;;;;;31.75;28.25;;;;;17.66;33.42;100131.00;5048264;28;45539;-75
2022/03/29 08:34:54;;;;;;;;;32.00;24.00;;;;;17.94;32.84;100124.13;5049275;28;45565;-76
2022/03/29 08:37:21;;;;;;;;;28.00;23.25;;;;;18.29;33.00;100126.53;5039736;28;46058;-75
2022/03/29 08:39:46;;;;;;;;;30.75;25.25;;;;;18.54;32.57;100120.59;5043269;28;45323;-76
2022/03/29 08:42:18;;;;;;;;;34.75;25.00;;;;;18.82;32.68;100119.75;5053381;28;45814;-77
2022/03/29 08:44:44;;;;;;;;;33.25;29.00;;;;;19.17;32.87;100118.56;5049295;28;45579;-76
2022/03/29 08:47:10;;;;;;;;;30.25;28.25;;;;;19.68;32.59;100115.31;5060437;28;45473;-76
2022/03/29 08:49:36;;;;;;;;;28.75;27.50;;;;;20.05;32.17;100116.44;5049650;27;45442;-76
2022/03/29 08:52:04;;;;;;;;;35.50;29.50;;;;;20.67;31.35;100109.63;5042678;28;45641;-74
2022/03/29 08:54:30;;;;;;;;;31.00;23.25;;;;;21.19;30.42;100101.53;5043283;28;45443;-76
2022/03/29 08:56:55;;;;;;;;;33.50;29.00;;;;;21.73;30.22;100098.50;5045838;28;46017;-75
2022/03/29 08:59:25;;;;;;;;;34.25;30.75;;;;;21.90;29.15;100094.53;5048419;28;45730;-80
2022/03/29 09:01:50;;;;;;;;;38.75;28.00;;;;;21.70;29.70;100071.84;5045878;28;45425;-80
2022/03/29 09:04:21;;;;;;;;;28.75;27.00;;;;;21.92;29.00;100094.41;5038040;28;45560;-80
2022/03/29 09:06:49;;;;;;;;;33.00;31.75;;;;;21.80;29.13;100097.06;5050086;28;46140;-81
2022/03/29 09:09:26;;;;;;;;;29.25;26.25;;;;;21.68;29.08;100092.56;5043545;28;45375;-79
2022/03/29 09:11:54;;;;;;;;;31.75;26.75;;;;;21.52;28.86;100087.50;5042829;28;45442;-80
2022/03/29 09:14:24;;;;;;;;;38.25;30.25;;;;;21.40;29.65;100083.84;5050444;28;45474;-80
2022/03/29 09:16:51;;;;;;;;;35.00;29.00;;;;;21.61;29.88;100091.34;5045988;28;46120;-80
2022/03/29 09:19:23;;;;;;;;;37.00;27.00;;;;;21.58;28.70;100087.03;5043103;28;45403;-79
2022/03/29 09:21:49;;;;;;;;;35.25;31.25;;;;;21.68;29.20;100086.34;5036734;28;45516;-80
2022/03/29 09:24:17;;;;;;;;;31.00;25.25;;;;;21.53;29.31;100077.59;5039127;28;45332;-81
2022/03/29 09:26:46;;;;;;;;;31.50;27.00;;;;;21.56;29.74;100074.66;5039561;28;45411;-80
2022/03/29 09:29:22;;;;;;;;;32.50;27.25;;;;;21.39;29.14;100076.75;5034555;28;45569;-79
2022/03/29 09:32:03;;;;;;;;;23.25;18.00;;;;;21.42;29.30;100073.84;5049616;28;45458;-79
2022/03/29 09:34:29;;;;;;;;;37.50;29.25;;;;;21.68;29.21;100087.19;5054589;28;45362;-79
2022/03/29 09:36:54;;;;;;;;;42.50;33.50;;;;;21.79;28.70;100084.59;5048897;28;46149;-80
2022/03/29 09:39:29;;;;;;;;;41.00;30.50;;;;;21.86;28.28;100084.13;5043481;28;45399;-80
2022/03/29 09:41:59;;;;;;;;;36.00;29.00;;;;;21.98;28.49;100073.28;5043097;28;45553;-80
2022/03/29 09:44:33;;;;;;;;;26.50;24.25;;;;;22.22;28.45;100068.88;5048660;28;45567;-80
2022/03/29 09:47:01;;;;;;;;;34.50;27.00;;;;;22.54;28.93;100064.53;5041180;28;46132;-80
2022/03/29 09:49:28;;;;;;;;;27.75;27.25;;;;;22.85;28.04;100066.66;5037178;28;45461;-80
2022/03/29 09:52:24;;;;;;;;;40.00;30.75;;;;;23.23;28.23;100054.66;5042648;28;45451;-81
2022/03/29 09:55:05;;;;;;;;;30.00;24.75;;;;;23.31;28.95;100064.84;5047356;28;45519;-80
2022/03/29 09:57:44;;;;;;;;;19.25;16.25;;;;;23.42;27.38;100059.41;5045271;28;46292;-80
2022/03/29 10:00:32;;;;;;;;;44.25;34.50;;;;;23.62;27.71;100056.91;5054828;28;45589;-80
2022/03/29 10:03:01;;;;;;;;;28.25;25.50;;;;;23.69;27.08;100056.28;5060699;28;45488;-81
2022/03/29 10:05:28;;;;;;;;;32.50;29.50;;;;;23.72;27.48;100050.63;5042220;28;45358;-79
2022/03/29 10:10:47;;;;;;;;;38.50;30.00;;;;;23.44;27.82;100046.66;5043202;28;45386;-81
2022/03/29 10:13:14;;;;;;;;;42.00;34.50;;;;;23.52;27.59;100038.81;5042677;28;45683;-82
2022/03/29 10:15:41;;;;;;;;;33.50;28.75;;;;;23.77;28.11;100037.59;5046760;28;45527;-80
2022/03/29 10:18:07;;;;;;;;;37.75;31.75;;;;;24.05;28.09;100035.31;5044866;28;46787;-80
2022/03/29 10:20:33;;;;;;;;;30.50;28.75;;;;;24.07;26.62;100029.78;5043107;28;45445;-79
2022/03/29 10:22:59;;;;;;;;;38.25;30.00;;;;;24.24;26.55;100028.34;5040170;28;45740;-80
2022/03/29 10:25:27;;;;;;;;;37.50;35.00;;;;;24.38;27.26;100025.28;5054418;28;45339;-79
2022/03/29 10:27:55;;;;;;;;;36.50;32.00;;;;;24.46;26.07;100013.81;5050675;28;45612;-79
2022/03/29 10:30:41;;;;;;;;;40.25;28.75;;;;;24.78;25.79;100018.25;5045675;28;45367;-80
2022/03/29 10:33:26;;;;;;;;;35.75;34.00;;;;;25.25;25.77;100021.28;5046382;28;45368;-80
2022/03/29 10:36:11;;;;;;;;;39.50;33.25;;;;;25.49;25.80;100014.66;5037916;28;45652;-80
2022/03/29 10:38:49;;;;;;;;;38.75;31.75;;;;;25.63;24.69;100016.97;5036682;28;45385;-78
2022/03/29 10:41:27;;;;;;;;;36.50;29.50;;;;;25.76;25.02;100013.09;5034859;28;45382;-79
2022/03/29 10:44:08;;;;;;;;;35.25;28.00;;;;;25.91;25.06;100011.69;5042176;28;45720;-80
2022/03/29 10:46:37;;;;;;;;;33.75;31.75;;;;;26.00;23.65;100007.28;5044645;28;45594;-81
2022/03/29 10:49:21;;;;;;;;;34.00;30.00;;;;;25.92;24.16;99994.44;5036212;28;45482;-81
2022/03/29 10:51:49;;;;;;;;;37.00;31.00;;;;;25.56;24.59;99993.31;5060776;28;45446;-80
2022/03/29 10:54:24;;;;;;;;;34.75;30.50;;;;;25.59;24.47;99996.59;5038891;28;45422;-80
2022/03/29 10:57:25;;;;;;;;;36.25;31.50;;;;;25.78;24.89;99998.44;5042884;28;45667;-77
2022/03/29 10:59:58;;;;;;;;;30.25;28.50;;;;;26.00;24.25;99996.47;5045127;28;45539;-81
2022/03/29 11:02:24;;;;;;;;;42.50;33.75;;;;;25.82;24.13;99988.19;5050970;28;45330;-79
2022/03/29 11:05:10;;;;;;;;;27.50;25.00;;;;;25.65;24.65;99985.19;5047817;28;45257;-80
2022/03/29 11:07:59;;;;;;;;;33.50;29.00;;;;;25.57;24.08;99984.19;5045699;28;45712;-79
2022/03/29 11:10:39;;;;;;;;;32.25;28.50;;;;;25.34;24.34;99981.75;5045345;28;46480;-79
2022/03/29 11:13:26;;;;;;;;;34.50;28.75;;;;;25.22;24.53;99983.72;5046442;28;45583;-80
2022/03/29 11:15:51;;;;;;;;;34.75;28.25;;;;;25.01;24.79;99984.66;5044639;28;45390;-78
2022/03/29 11:18:38;;;;;;;;;38.75;29.75;;;;;24.80;24.62;99981.19;5056389;28;45595;-77
2022/03/29 11:21:05;;;;;;;;;41.75;33.25;;;;;24.61;25.00;99988.22;5045706;28;45952;-80
2022/03/29 11:23:36;;;;;;;;;31.00;25.25;;;;;24.36;24.93;99985.94;5047173;28;45513;-79